createdAt,value
2024-01-20T00:02:23.618Z,6.85
2024-01-20T00:05:27.311Z,8.33
2024-01-20T00:08:30.632Z,8.35
2024-01-20T00:11:33.985Z,8.18
2024-01-20T00:14:36.879Z,8.33
2024-01-20T00:17:41.999Z,8.82
2024-01-20T00:20:47.441Z,8.85
2024-01-20T00:23:51.543Z,7.72
2024-01-20T00:26:54.303Z,7.72
2024-01-20T00:29:57.772Z,7.07
2024-01-20T00:33:00.907Z,8.73
2024-01-20T00:36:04.624Z,8.73
2024-01-20T00:39:07.544Z,8.05
2024-01-20T00:42:10.840Z,8.23
2024-01-20T00:45:13.644Z,8.43
2024-01-20T00:48:16.829Z,7.50
2024-01-20T00:51:19.801Z,6.82
2024-01-20T00:54:23.041Z,8.07
2024-01-20T00:57:25.908Z,6.82
2024-01-20T01:00:29.082Z,6.72
2024-01-20T01:03:32.262Z,8.30
2024-01-20T01:06:35.640Z,7.47
2024-01-20T01:09:38.681Z,8.35
2024-01-20T01:12:41.878Z,7.65
2024-01-20T01:15:44.695Z,6.70
2024-01-20T01:18:48.153Z,7.72
2024-01-20T01:21:51.254Z,7.60
2024-01-20T01:24:54.650Z,8.43
2024-01-20T01:27:57.747Z,5.82
2024-01-20T01:31:00.935Z,7.55
2024-01-20T01:34:03.952Z,5.97
2024-01-20T01:37:07.256Z,5.60
2024-01-20T01:40:10.676Z,7.20
2024-01-20T01:43:13.917Z,6.47
2024-01-20T01:46:17.010Z,5.93
2024-01-20T01:49:22.036Z,5.25
2024-01-20T01:52:25.634Z,5.43
2024-01-20T01:55:29.183Z,6.72
2024-01-20T01:58:32.210Z,7.32
2024-01-20T02:01:35.557Z,5.15
2024-01-20T02:04:39.154Z,8.88
2024-01-20T02:07:44.916Z,7.73
2024-01-20T02:10:48.648Z,7.72
2024-01-20T02:13:51.971Z,7.30
2024-01-20T02:16:55.002Z,5.97
2024-01-20T02:19:58.176Z,5.93
2024-01-20T02:23:01.790Z,6.57
2024-01-20T02:26:05.206Z,6.70
2024-01-20T02:29:08.379Z,6.30
2024-01-20T02:32:11.642Z,6.62
2024-01-20T02:35:14.575Z,6.22
2024-01-20T02:38:17.892Z,6.50
2024-01-20T02:41:20.838Z,5.82
2024-01-20T02:44:24.151Z,6.10
2024-01-20T02:47:27.203Z,6.03
2024-01-20T02:50:30.298Z,5.62
2024-01-20T02:53:33.616Z,4.50
2024-01-20T02:56:37.146Z,6.35
2024-01-20T02:59:40.021Z,5.45
2024-01-20T03:02:43.211Z,5.20
2024-01-20T03:05:46.612Z,5.90
2024-01-20T03:08:50.380Z,5.80
2024-01-20T03:11:53.200Z,6.45
2024-01-20T03:14:56.489Z,4.90
2024-01-20T03:17:59.640Z,6.03
2024-01-20T03:21:03.025Z,6.62
2024-01-20T03:24:06.350Z,3.55
2024-01-20T03:27:10.900Z,5.60
2024-01-20T03:30:14.159Z,6.20
2024-01-20T03:33:17.698Z,6.53
2024-01-20T03:36:20.769Z,4.87
2024-01-20T03:39:24.285Z,4.80
2024-01-20T03:42:29.261Z,5.93
2024-01-20T03:45:32.805Z,6.05
2024-01-20T03:48:35.920Z,5.40
2024-01-20T03:51:39.497Z,5.90
2024-01-20T03:54:42.585Z,5.50
2024-01-20T03:57:45.711Z,5.00
2024-01-20T04:01:05.139Z,5.43
2024-01-20T04:04:09.366Z,4.55
2024-01-20T04:07:12.689Z,5.15
2024-01-20T04:10:16.104Z,4.90
2024-01-20T04:13:19.118Z,5.18
2024-01-20T04:16:22.366Z,5.22
2024-01-20T04:19:25.465Z,6.20
2024-01-20T04:22:29.025Z,5.68
2024-01-20T04:25:32.009Z,5.90
2024-01-20T04:28:35.220Z,6.80
2024-01-20T04:31:38.401Z,6.82
2024-01-20T04:34:41.945Z,6.95
2024-01-20T04:37:45.245Z,6.97
2024-01-20T04:40:48.683Z,6.37
2024-01-20T04:43:51.724Z,6.65
2024-01-20T04:46:55.065Z,4.95
2024-01-20T04:49:57.832Z,5.60
2024-01-20T04:53:00.976Z,5.90
2024-01-20T04:56:07.643Z,5.82
2024-01-20T04:59:10.869Z,9.43
2024-01-20T05:02:14.576Z,8.95
2024-01-20T05:05:22.851Z,6.62
2024-01-20T05:08:25.713Z,8.40
2024-01-20T05:11:28.707Z,5.60
2024-01-20T05:14:31.726Z,6.62
2024-01-20T05:17:35.370Z,5.78
2024-01-20T05:20:39.337Z,6.10
2024-01-20T05:23:42.686Z,6.07
2024-01-20T05:26:45.723Z,7.22
2024-01-20T05:29:49.139Z,6.05
2024-01-20T05:32:52.291Z,9.35
2024-01-20T05:35:57.659Z,8.52
2024-01-20T05:39:00.707Z,9.00
2024-01-20T05:42:04.650Z,7.07
2024-01-20T05:45:10.809Z,8.70
2024-01-20T05:48:14.396Z,9.57
2024-01-20T05:51:17.190Z,7.73
2024-01-20T05:54:20.636Z,9.50
2024-01-20T05:57:25.374Z,7.90
2024-01-20T06:00:28.890Z,7.20
2024-01-20T06:03:35.873Z,8.75
2024-01-20T06:06:39.279Z,9.48
2024-01-20T06:09:42.691Z,9.48
2024-01-20T06:12:46.065Z,8.60
2024-01-20T06:15:49.901Z,7.75
2024-01-20T06:18:52.874Z,7.90
2024-01-20T06:21:56.346Z,7.93
2024-01-20T06:24:59.377Z,7.35
2024-01-20T06:28:04.745Z,15.32
2024-01-20T06:31:07.789Z,9.05
2024-01-20T06:34:11.214Z,17.50
2024-01-20T06:37:14.762Z,14.43
2024-01-20T06:40:18.245Z,15.05
2024-01-20T06:43:21.320Z,15.27
2024-01-20T06:46:24.754Z,15.70
2024-01-20T06:49:27.681Z,18.50
2024-01-20T06:52:32.706Z,28.53
2024-01-20T06:55:36.072Z,17.25
2024-01-20T06:58:39.483Z,25.90
2024-01-20T07:01:46.039Z,40.03
2024-01-20T07:04:50.218Z,31.40
2024-01-20T07:07:55.097Z,27.50
2024-01-20T07:10:58.471Z,22.87
2024-01-20T07:14:01.253Z,19.33
2024-01-20T07:17:06.732Z,23.15
2024-01-20T07:20:12.074Z,26.75
2024-01-20T07:23:15.122Z,20.20
2024-01-20T07:26:18.376Z,20.62
2024-01-20T07:29:21.694Z,22.13
2024-01-20T07:32:24.752Z,22.85
2024-01-20T07:35:27.957Z,32.70
2024-01-20T07:38:31.170Z,23.75
2024-01-20T07:41:34.566Z,23.92
2024-01-20T07:44:37.711Z,23.17
2024-01-20T07:47:41.306Z,22.02
2024-01-20T07:50:44.314Z,23.50
2024-01-20T07:53:48.758Z,23.50
2024-01-20T07:56:51.656Z,17.33
2024-01-20T07:59:54.956Z,17.35
2024-01-20T08:02:58.856Z,24.55
2024-01-20T08:06:08.788Z,20.95
2024-01-20T08:09:12.664Z,18.77
2024-01-20T08:12:16.240Z,18.85
2024-01-20T08:15:19.197Z,18.43
2024-01-20T08:18:23.039Z,16.30
2024-01-20T08:21:26.356Z,10.05
2024-01-20T08:24:29.847Z,8.30
2024-01-20T08:27:33.077Z,6.68
2024-01-20T08:30:36.480Z,7.55
2024-01-20T08:33:40.789Z,7.37
2024-01-20T08:36:44.466Z,6.50
2024-01-20T08:39:47.297Z,5.72
2024-01-20T08:42:51.849Z,6.78
2024-01-20T08:45:54.614Z,5.10
2024-01-20T08:48:57.917Z,5.87
2024-01-20T08:52:00.942Z,6.67
2024-01-20T08:55:04.601Z,3.85
2024-01-20T08:58:07.525Z,6.22
2024-01-20T09:01:11.180Z,6.45
2024-01-20T09:04:17.353Z,6.20
2024-01-20T09:07:22.035Z,5.87
2024-01-20T09:10:25.409Z,5.10
2024-01-20T09:13:29.051Z,5.72
2024-01-20T09:16:32.010Z,5.72
2024-01-20T09:19:35.281Z,5.83
2024-01-20T09:22:38.390Z,6.07
2024-01-20T09:25:41.588Z,6.12
2024-01-20T09:28:44.614Z,5.82
2024-01-20T09:31:47.997Z,5.70
2024-01-20T09:34:50.964Z,4.17
2024-01-20T09:37:54.051Z,6.43
2024-01-20T09:40:59.545Z,5.78
2024-01-20T09:44:04.033Z,6.07
2024-01-20T09:47:11.324Z,5.93
2024-01-20T09:50:14.654Z,6.80
2024-01-20T09:53:20.034Z,6.65
2024-01-20T09:56:23.580Z,4.87
2024-01-20T09:59:29.021Z,5.70
2024-01-20T10:02:34.566Z,4.12
2024-01-20T10:05:39.277Z,4.73
2024-01-20T10:08:42.579Z,6.28
2024-01-20T10:11:46.332Z,6.70
2024-01-20T10:14:49.586Z,6.05
2024-01-20T10:17:53.861Z,5.15
2024-01-20T10:21:05.074Z,6.20
2024-01-20T10:24:09.330Z,5.80
2024-01-20T10:27:21.676Z,6.40
2024-01-20T10:30:26.449Z,6.05
2024-01-20T10:33:29.538Z,7.22
2024-01-20T10:36:33.946Z,4.33
2024-01-20T10:39:43.787Z,5.72
2024-01-20T10:42:51.590Z,6.28
2024-01-20T10:46:21.240Z,5.45
2024-01-20T10:49:24.643Z,6.68
2024-01-20T10:52:27.452Z,4.33
2024-01-20T10:55:33.426Z,6.57
2024-01-20T10:58:53.502Z,6.22
2024-01-20T11:01:57.638Z,6.10
2024-01-20T11:05:01.444Z,5.97
2024-01-20T11:08:07.830Z,4.97
2024-01-20T11:11:11.514Z,5.37
2024-01-20T11:14:16.975Z,6.12
2024-01-20T11:17:20.698Z,4.62
2024-01-20T11:20:24.173Z,5.80
2024-01-20T11:23:27.999Z,5.17
2024-01-20T11:26:38.881Z,4.65
2024-01-20T11:29:41.686Z,5.10
2024-01-20T11:32:45.432Z,5.55
2024-01-20T11:35:48.445Z,4.53
2024-01-20T11:38:53.309Z,5.60
2024-01-20T11:42:05.522Z,4.85
2024-01-20T11:45:09.187Z,5.57
2024-01-20T11:48:15.099Z,5.32
2024-01-20T11:51:21.419Z,5.60
2024-01-20T11:54:24.433Z,4.63
2024-01-20T11:57:31.473Z,4.25
2024-01-20T12:00:34.724Z,5.20
2024-01-20T12:03:38.013Z,6.00
2024-01-20T12:06:41.178Z,5.47
2024-01-20T12:09:48.311Z,5.67
2024-01-20T12:12:51.226Z,6.15
2024-01-20T12:15:55.394Z,5.87
2024-01-20T12:18:58.337Z,5.15
2024-01-20T12:22:01.961Z,5.82
2024-01-20T12:25:05.334Z,5.03
2024-01-20T12:28:08.549Z,6.45
2024-01-20T12:31:13.890Z,7.62
2024-01-20T12:34:18.881Z,7.70
2024-01-20T12:37:22.119Z,6.75
2024-01-20T12:40:26.102Z,7.07
2024-01-20T12:43:29.249Z,6.00
2024-01-20T12:46:32.490Z,6.45
2024-01-20T12:49:35.557Z,5.03
2024-01-20T12:52:38.956Z,5.55
2024-01-20T12:55:42.162Z,6.10
2024-01-20T12:58:45.448Z,7.07
2024-01-20T13:01:50.193Z,7.53
2024-01-20T13:04:53.638Z,5.75
2024-01-20T13:07:56.887Z,6.53
2024-01-20T13:11:00.105Z,7.07
2024-01-20T13:14:04.732Z,7.55
2024-01-20T13:17:07.821Z,6.87
2024-01-20T13:20:11.316Z,5.68
2024-01-20T13:23:14.948Z,5.62
2024-01-20T13:26:18.273Z,6.77
2024-01-20T13:29:21.756Z,6.30
2024-01-20T13:32:24.975Z,6.85
2024-01-20T13:35:28.361Z,6.95
2024-01-20T13:38:31.396Z,7.22
2024-01-20T13:41:35.354Z,5.90
2024-01-20T13:44:38.736Z,6.03
2024-01-20T13:47:41.971Z,6.72
2024-01-20T13:50:44.991Z,7.47
2024-01-20T13:53:48.738Z,6.30
2024-01-20T13:56:51.754Z,7.07
2024-01-20T13:59:54.905Z,7.40
2024-01-20T14:02:58.118Z,6.80
2024-01-20T14:06:01.444Z,6.05
2024-01-20T14:09:06.440Z,7.32
2024-01-20T14:12:10.598Z,7.60
2024-01-20T14:15:13.766Z,7.90
2024-01-20T14:18:17.500Z,4.53
2024-01-20T14:21:20.668Z,6.47
2024-01-20T14:24:24.054Z,8.40
2024-01-20T14:27:27.073Z,7.68
2024-01-20T14:30:30.314Z,6.57
2024-01-20T14:33:33.604Z,4.30
2024-01-20T14:36:37.042Z,5.72
2024-01-20T14:39:40.709Z,5.83
2024-01-20T14:42:44.305Z,7.93
2024-01-20T14:45:47.447Z,7.37
2024-01-20T14:48:50.713Z,7.30
2024-01-20T14:51:53.605Z,7.50
2024-01-20T14:54:57.951Z,7.80
2024-01-20T14:58:00.851Z,6.45
2024-01-20T15:01:04.881Z,6.60
2024-01-20T15:04:08.678Z,8.20
2024-01-20T15:07:12.405Z,8.65
2024-01-20T15:10:15.738Z,9.35
2024-01-20T15:13:19.088Z,7.63
2024-01-20T15:16:22.285Z,8.00
2024-01-20T15:19:26.052Z,8.80
2024-01-20T15:22:29.074Z,9.82
2024-01-20T15:25:32.556Z,10.93
2024-01-20T15:28:35.406Z,12.75
2024-01-20T15:31:38.754Z,14.02
2024-01-20T15:34:41.822Z,15.25
2024-01-20T15:37:45.159Z,12.60
2024-01-20T15:40:48.498Z,13.88
2024-01-20T15:43:54.304Z,14.95
2024-01-20T15:46:57.426Z,14.93
2024-01-20T15:50:01.025Z,15.88
2024-01-20T15:53:04.193Z,14.70
2024-01-20T15:56:09.672Z,15.38
2024-01-20T15:59:13.609Z,15.05
2024-01-20T16:02:17.041Z,15.60
2024-01-20T16:05:20.563Z,16.12
2024-01-20T16:08:23.641Z,28.40
2024-01-20T16:11:27.754Z,27.10
2024-01-20T16:14:31.165Z,21.17
2024-01-20T16:17:37.508Z,19.03
2024-01-20T16:20:40.584Z,20.42
2024-01-20T16:23:43.748Z,22.77
2024-01-20T16:26:46.698Z,22.67
2024-01-20T16:29:50.130Z,26.45
2024-01-20T16:32:52.912Z,41.22
2024-01-20T16:35:56.480Z,53.75
2024-01-20T16:38:59.314Z,44.93
2024-01-20T16:42:02.722Z,44.10
2024-01-20T16:45:06.285Z,41.10
2024-01-20T16:48:09.849Z,48.97
2024-01-20T16:51:18.278Z,35.55
2024-01-20T16:54:27.929Z,40.95
2024-01-20T16:57:31.162Z,35.70
2024-01-20T17:00:34.500Z,35.55
2024-01-20T17:03:37.478Z,35.33
2024-01-20T17:06:40.697Z,35.28
2024-01-20T17:09:44.452Z,33.73
2024-01-20T17:12:47.684Z,34.47
2024-01-20T17:15:50.448Z,33.92
2024-01-20T17:18:54.613Z,33.67
2024-01-20T17:21:57.613Z,28.80
2024-01-20T17:25:01.636Z,33.40
2024-01-20T17:28:04.743Z,36.88
2024-01-20T17:31:08.146Z,40.55
2024-01-20T17:34:11.331Z,39.38
2024-01-20T17:37:15.222Z,34.58
2024-01-20T17:40:18.630Z,30.83
2024-01-20T17:43:22.137Z,32.75
2024-01-20T17:46:25.119Z,32.22
2024-01-20T17:49:28.878Z,32.17
2024-01-20T17:52:32.147Z,44.33
2024-01-20T17:55:35.803Z,36.55
2024-01-20T17:58:38.850Z,35.47
2024-01-20T18:01:43.197Z,33.97
2024-01-20T18:04:46.963Z,34.78
2024-01-20T18:07:51.381Z,33.63
2024-01-20T18:10:55.582Z,34.53
2024-01-20T18:13:59.552Z,33.38
2024-01-20T18:17:03.538Z,27.52
2024-01-20T18:20:08.260Z,27.27
2024-01-20T18:23:12.160Z,14.68
2024-01-20T18:26:15.405Z,31.50
2024-01-20T18:29:18.819Z,24.02
2024-01-20T18:32:22.572Z,29.87
2024-01-20T18:35:25.967Z,29.45
2024-01-20T18:38:29.056Z,30.60
2024-01-20T18:41:33.374Z,30.73
2024-01-20T18:44:36.575Z,33.92
2024-01-20T18:47:45.949Z,36.55
2024-01-20T18:50:48.848Z,27.37
2024-01-20T18:53:52.063Z,28.95
2024-01-20T18:56:55.306Z,29.48
2024-01-20T18:59:59.663Z,32.95
2024-01-20T19:03:02.995Z,34.78
2024-01-20T19:06:06.654Z,35.25
2024-01-20T19:09:09.806Z,33.15
2024-01-20T19:12:14.760Z,34.00
2024-01-20T19:15:17.866Z,33.03
2024-01-20T19:18:21.663Z,30.42
2024-01-20T19:21:25.068Z,30.73
2024-01-20T19:24:28.547Z,32.80
2024-01-20T19:27:32.286Z,31.12
2024-01-20T19:30:35.702Z,31.02
2024-01-20T19:33:40.893Z,30.80
2024-01-20T19:36:46.109Z,33.05
2024-01-20T19:39:49.047Z,33.50
2024-01-20T19:42:52.325Z,26.10
2024-01-20T19:45:55.112Z,28.35
2024-01-20T19:48:58.192Z,27.98
2024-01-20T19:52:02.008Z,26.13
2024-01-20T19:55:06.680Z,24.42
2024-01-20T19:58:09.773Z,23.83
2024-01-20T20:01:13.247Z,25.50
2024-01-20T20:04:17.576Z,19.83
2024-01-20T20:07:21.051Z,27.02
2024-01-20T20:10:28.367Z,24.58
2024-01-20T20:13:31.323Z,25.20
2024-01-20T20:16:34.705Z,25.00
2024-01-20T20:19:38.009Z,25.37
2024-01-20T20:22:41.707Z,24.03
2024-01-20T20:25:44.396Z,23.17
2024-01-20T20:28:47.755Z,23.02
2024-01-20T20:31:50.704Z,23.92
2024-01-20T20:34:58.853Z,20.23
2024-01-20T20:38:01.982Z,23.85
2024-01-20T20:41:05.559Z,24.67
2024-01-20T20:44:10.057Z,21.47
2024-01-20T20:47:14.539Z,23.65
2024-01-20T20:50:19.085Z,20.92
2024-01-20T20:53:22.285Z,19.17
2024-01-20T20:56:25.075Z,21.35
2024-01-20T20:59:28.351Z,20.15
2024-01-20T21:02:31.589Z,22.45
2024-01-20T21:05:35.102Z,21.35
2024-01-20T21:08:38.435Z,23.45
2024-01-20T21:11:42.127Z,27.35
2024-01-20T21:14:45.280Z,29.50
2024-01-20T21:17:50.096Z,39.53
2024-01-20T21:20:53.468Z,27.27
2024-01-20T21:23:56.810Z,28.13
2024-01-20T21:27:00.742Z,31.95
2024-01-20T21:30:05.762Z,28.85
2024-01-20T21:33:10.407Z,29.08
2024-01-20T21:36:14.449Z,29.17
2024-01-20T21:39:21.427Z,30.40
2024-01-20T21:42:24.765Z,33.05
2024-01-20T21:45:29.813Z,29.47
2024-01-20T21:48:33.270Z,34.40
2024-01-20T21:51:38.667Z,35.67
2024-01-20T21:54:45.144Z,33.10
2024-01-20T21:57:51.356Z,38.08
2024-01-20T22:00:55.557Z,30.67
2024-01-20T22:03:59.201Z,34.45
2024-01-20T22:07:02.037Z,30.35
2024-01-20T22:10:06.869Z,28.40
2024-01-20T22:13:09.933Z,22.80
2024-01-20T22:16:13.830Z,28.57
2024-01-20T22:19:16.832Z,31.02
2024-01-20T22:22:21.208Z,39.65
2024-01-20T22:25:24.629Z,34.20
2024-01-20T22:28:28.346Z,25.42
2024-01-20T22:31:32.415Z,21.98
2024-01-20T22:34:36.357Z,24.42
2024-01-20T22:37:39.370Z,32.80
2024-01-20T22:40:42.851Z,35.80
2024-01-20T22:43:45.980Z,25.35
2024-01-20T22:46:50.173Z,23.33
2024-01-20T22:49:53.096Z,21.10
2024-01-20T22:52:56.360Z,12.00
2024-01-20T22:55:59.239Z,22.43
2024-01-20T22:59:02.320Z,18.58
2024-01-20T23:02:05.429Z,16.62
2024-01-20T23:05:09.513Z,19.70
2024-01-20T23:08:15.090Z,20.70
2024-01-20T23:11:19.167Z,20.02
2024-01-20T23:14:22.496Z,20.58
2024-01-20T23:17:26.096Z,20.67
2024-01-20T23:20:28.932Z,20.10
2024-01-20T23:23:32.208Z,20.17
2024-01-20T23:26:36.410Z,20.63
2024-01-20T23:29:39.807Z,20.15
2024-01-20T23:32:43.916Z,22.00
2024-01-20T23:35:47.216Z,18.17
2024-01-20T23:38:50.016Z,19.27
2024-01-20T23:41:53.204Z,18.37
2024-01-20T23:44:56.485Z,19.25
2024-01-20T23:47:59.704Z,15.27
2024-01-20T23:51:02.762Z,14.07
2024-01-20T23:54:06.003Z,14.40
2024-01-20T23:57:08.857Z,15.70
